createdAt,value
2018-11-12T00:00:17.409Z,3.30
2018-11-12T00:02:48.585Z,3.30
2018-11-12T00:05:18.182Z,3.40
2018-11-12T00:07:47.105Z,3.30
2018-11-12T00:10:15.959Z,3.20
2018-11-12T00:12:44.844Z,3.20
2018-11-12T00:15:13.704Z,3.10
2018-11-12T00:17:42.563Z,3.10
2018-11-12T00:20:12.820Z,3.00
2018-11-12T00:22:42.031Z,3.00
2018-11-12T00:25:10.877Z,3.10
2018-11-12T00:27:40.046Z,3.20
2018-11-12T00:30:10.764Z,3.10
2018-11-12T00:32:39.618Z,3.10
2018-11-12T00:35:09.453Z,3.00
2018-11-12T00:37:38.555Z,3.00
2018-11-12T00:40:09.390Z,3.00
2018-11-12T00:42:38.260Z,2.90
2018-11-12T00:45:07.685Z,2.90
2018-11-12T00:47:36.780Z,2.90
2018-11-12T00:50:06.396Z,2.80
2018-11-12T00:52:35.600Z,2.80
2018-11-12T00:55:04.743Z,2.70
2018-11-12T00:57:33.755Z,2.70
2018-11-12T01:00:02.609Z,2.60
2018-11-12T01:02:31.469Z,2.60
2018-11-12T01:05:00.326Z,2.60
2018-11-12T01:07:29.184Z,2.50
2018-11-12T01:09:58.056Z,2.50
2018-11-12T01:12:26.904Z,2.50
2018-11-12T01:14:55.761Z,2.50
2018-11-12T01:17:24.634Z,2.50
2018-11-12T01:19:53.504Z,2.70
2018-11-12T01:22:22.349Z,2.70
2018-11-12T01:24:51.204Z,2.60
2018-11-12T01:27:20.064Z,2.50
2018-11-12T01:29:49.253Z,2.50
2018-11-12T01:32:18.105Z,2.60
2018-11-12T01:34:46.981Z,2.70
2018-11-12T01:37:15.833Z,2.70
2018-11-12T01:39:44.750Z,2.60
2018-11-12T01:42:13.745Z,2.60
2018-11-12T01:44:42.556Z,2.50
2018-11-12T01:47:11.402Z,2.50
2018-11-12T01:49:40.257Z,2.50
2018-11-12T01:52:09.118Z,2.50
2018-11-12T01:54:37.977Z,2.40
2018-11-12T01:57:06.830Z,2.50
2018-11-12T01:59:35.717Z,2.50
2018-11-12T02:02:05.231Z,2.50
2018-11-12T02:04:34.120Z,2.50
2018-11-12T02:07:02.966Z,2.60
2018-11-12T02:09:31.848Z,2.60
2018-11-12T02:12:00.728Z,2.60
2018-11-12T02:14:29.646Z,2.60
2018-11-12T02:16:58.539Z,2.60
2018-11-12T02:19:27.401Z,2.70
2018-11-12T02:21:56.252Z,2.70
2018-11-12T02:24:25.237Z,2.80
2018-11-12T02:26:54.117Z,2.90
2018-11-12T02:29:23.008Z,2.90
2018-11-12T02:31:51.863Z,2.90
2018-11-12T02:34:20.742Z,3.00
2018-11-12T02:36:49.597Z,3.00
2018-11-12T02:39:18.457Z,3.10
2018-11-12T02:41:47.313Z,3.20
2018-11-12T02:44:16.171Z,3.20
2018-11-12T02:46:45.018Z,3.30
2018-11-12T02:49:13.881Z,3.30
2018-11-12T02:51:42.753Z,3.30
2018-11-12T02:54:11.634Z,3.50
2018-11-12T02:56:40.495Z,3.50
2018-11-12T02:59:09.346Z,3.60
2018-11-12T03:01:38.298Z,3.60
2018-11-12T03:04:07.250Z,3.60
2018-11-12T03:06:36.122Z,3.80
2018-11-12T03:09:09.317Z,3.90
2018-11-12T03:11:38.246Z,4.00
2018-11-12T03:14:07.100Z,4.00
2018-11-12T03:16:35.981Z,4.10
2018-11-12T03:19:05.134Z,4.20
2018-11-12T03:21:34.242Z,4.30
2018-11-12T03:24:03.135Z,4.10
2018-11-12T03:26:31.997Z,4.10
2018-11-12T03:29:00.859Z,4.00
2018-11-12T03:31:29.770Z,4.00
2018-11-12T03:33:58.629Z,4.10
2018-11-12T03:36:27.485Z,4.10
2018-11-12T03:38:56.332Z,4.10
2018-11-12T03:41:25.196Z,4.00
2018-11-12T03:43:54.059Z,4.00
2018-11-12T03:46:22.912Z,4.10
2018-11-12T03:48:51.776Z,4.00
2018-11-12T03:51:20.722Z,3.90
2018-11-12T03:53:49.671Z,4.00
2018-11-12T03:56:18.555Z,4.00
2018-11-12T03:58:47.417Z,4.00
2018-11-12T04:01:16.277Z,4.00
2018-11-12T04:03:45.159Z,4.00
2018-11-12T04:06:14.008Z,3.90
2018-11-12T04:08:42.871Z,4.00
2018-11-12T04:11:11.740Z,3.90
2018-11-12T04:13:40.605Z,4.00
2018-11-12T04:16:09.539Z,4.00
2018-11-12T04:18:38.423Z,4.00
2018-11-12T04:21:07.272Z,4.00
2018-11-12T04:23:36.132Z,4.00
2018-11-12T04:26:05.041Z,4.10
2018-11-12T04:28:33.961Z,4.10
2018-11-12T04:31:02.805Z,4.10
2018-11-12T04:33:31.675Z,4.10
2018-11-12T04:36:00.705Z,4.10
2018-11-12T04:38:29.588Z,4.20
2018-11-12T04:40:58.427Z,4.20
2018-11-12T04:43:27.285Z,4.20
2018-11-12T04:45:56.137Z,4.20
2018-11-12T04:48:24.979Z,4.20
2018-11-12T04:50:53.825Z,4.20
2018-11-12T04:53:22.718Z,4.20
2018-11-12T04:55:51.532Z,4.20
2018-11-12T04:58:20.425Z,4.20
2018-11-12T05:00:49.265Z,4.20
2018-11-12T05:03:18.148Z,4.30
2018-11-12T05:05:47.019Z,4.20
2018-11-12T05:08:15.878Z,4.20
2018-11-12T05:10:44.724Z,4.20
2018-11-12T05:13:13.591Z,4.20
2018-11-12T05:15:42.454Z,4.20
2018-11-12T05:18:11.315Z,4.10
2018-11-12T05:20:40.239Z,4.10
2018-11-12T05:23:09.099Z,4.00
2018-11-12T05:25:37.957Z,4.10
2018-11-12T05:28:06.813Z,4.10
2018-11-12T05:30:35.666Z,4.10
2018-11-12T05:33:04.544Z,4.10
2018-11-12T05:35:33.401Z,4.10
2018-11-12T05:38:02.314Z,4.10
2018-11-12T05:40:31.124Z,4.10
2018-11-12T05:43:00.001Z,4.10
2018-11-12T05:45:29.373Z,4.10
2018-11-12T05:47:58.255Z,4.10
2018-11-12T05:50:28.389Z,4.00
2018-11-12T05:52:59.761Z,3.90
2018-11-12T05:55:29.549Z,4.00
2018-11-12T05:57:58.540Z,3.90
2018-11-12T06:00:30.804Z,3.90
2018-11-12T06:02:59.731Z,3.90
2018-11-12T06:05:28.704Z,3.80
2018-11-12T06:07:57.565Z,3.80
2018-11-12T06:10:27.708Z,3.80
2018-11-12T06:12:56.590Z,3.70
2018-11-12T06:15:25.439Z,3.70
2018-11-12T06:17:54.423Z,3.70
2018-11-12T06:20:28.514Z,3.70
2018-11-12T06:23:01.201Z,3.70
2018-11-12T06:25:33.569Z,3.80
2018-11-12T06:28:02.533Z,3.70
2018-11-12T06:30:33.774Z,3.70
2018-11-12T06:33:02.623Z,3.70
2018-11-12T06:35:31.524Z,3.70
2018-11-12T06:38:00.405Z,3.80
2018-11-12T06:40:29.747Z,3.70
2018-11-12T06:42:58.588Z,3.80
2018-11-12T06:45:28.639Z,3.80
2018-11-12T06:47:58.188Z,4.00
2018-11-12T06:50:28.285Z,4.00
2018-11-12T06:52:57.648Z,3.90
2018-11-12T06:55:26.431Z,3.90
2018-11-12T06:57:55.478Z,4.10
2018-11-12T07:00:27.440Z,4.10
2018-11-12T07:02:56.334Z,4.20
2018-11-12T07:05:25.450Z,4.30
2018-11-12T07:07:54.322Z,4.40
2018-11-12T07:10:24.342Z,4.20
2018-11-12T07:12:59.619Z,4.20
2018-11-12T07:15:43.381Z,4.10
2018-11-12T07:18:29.913Z,4.30
2018-11-12T07:20:58.793Z,4.60
2018-11-12T07:23:27.646Z,4.80
2018-11-12T07:25:56.496Z,5.30
2018-11-12T07:28:25.349Z,5.60
2018-11-12T07:30:54.281Z,5.60
2018-11-12T07:33:23.067Z,5.60
2018-11-12T07:35:51.932Z,5.80
2018-11-12T07:38:20.777Z,6.30
2018-11-12T07:40:49.773Z,6.80
2018-11-12T07:43:18.630Z,6.80
2018-11-12T07:45:47.625Z,7.40
2018-11-12T07:48:16.513Z,7.70
2018-11-12T07:50:45.361Z,7.50
2018-11-12T07:53:14.246Z,7.60
2018-11-12T07:55:43.133Z,7.60
2018-11-12T07:58:11.986Z,7.50
2018-11-12T08:00:40.960Z,7.70
2018-11-12T08:03:10.995Z,7.80
2018-11-12T08:05:40.600Z,7.20
2018-11-12T08:08:09.858Z,7.20
2018-11-12T08:10:38.712Z,7.70
2018-11-12T08:13:07.574Z,7.40
2018-11-12T08:15:36.445Z,7.60
2018-11-12T08:18:05.425Z,7.60
2018-11-12T08:20:34.276Z,7.40
2018-11-12T08:23:03.147Z,8.00
2018-11-12T08:25:32.034Z,8.20
2018-11-12T08:28:00.952Z,8.30
2018-11-12T08:30:30.357Z,7.90
2018-11-12T08:33:00.469Z,9.50
2018-11-12T08:35:29.280Z,9.00
2018-11-12T08:37:58.724Z,9.30
2018-11-12T08:40:28.662Z,9.90
2018-11-12T08:42:57.473Z,10.00
2018-11-12T08:45:26.381Z,11.10
2018-11-12T08:47:56.012Z,10.50
2018-11-12T08:50:25.972Z,9.80
2018-11-12T08:52:55.562Z,9.60
2018-11-12T08:55:25.920Z,9.60
2018-11-12T08:57:56.005Z,10.00
2018-11-12T09:00:25.634Z,9.90
2018-11-12T09:02:54.500Z,9.40
2018-11-12T09:05:24.704Z,10.70
2018-11-12T09:07:55.127Z,9.60
2018-11-12T09:10:28.755Z,10.00
2018-11-12T09:12:57.959Z,10.40
2018-11-12T09:15:26.929Z,10.50
2018-11-12T09:17:55.797Z,10.80
2018-11-12T09:20:25.840Z,11.90
2018-11-12T09:22:55.135Z,12.70
2018-11-12T09:25:25.364Z,13.60
2018-11-12T09:27:54.261Z,14.50
2018-11-12T09:30:25.172Z,15.70
2018-11-12T09:32:54.048Z,16.20
2018-11-12T09:35:25.029Z,15.90
2018-11-12T09:37:54.609Z,15.00
2018-11-12T09:40:28.062Z,14.50
2018-11-12T09:42:56.936Z,14.20
2018-11-12T09:45:25.789Z,15.10
2018-11-12T09:47:54.733Z,13.30
2018-11-12T09:50:24.514Z,12.00
2018-11-12T09:52:54.470Z,12.20
2018-11-12T09:55:24.330Z,13.00
2018-11-12T09:57:57.752Z,13.50
2018-11-12T10:00:26.780Z,15.40
2018-11-12T10:02:56.208Z,13.20
2018-11-12T10:05:25.878Z,14.50
2018-11-12T10:08:00.783Z,14.50
2018-11-12T10:10:37.541Z,13.70
2018-11-12T10:13:10.182Z,11.20
2018-11-12T10:15:38.133Z,10.80
2018-11-12T10:18:07.356Z,10.90
2018-11-12T10:20:32.756Z,10.60
2018-11-12T10:23:01.625Z,11.10
2018-11-12T10:25:30.483Z,12.30
2018-11-12T10:30:28.434Z,13.90
2018-11-12T10:32:57.458Z,13.90
2018-11-12T10:35:26.459Z,14.80
2018-11-12T10:37:55.408Z,14.40
2018-11-12T10:40:25.042Z,14.00
2018-11-12T10:42:53.921Z,14.60
2018-11-12T10:45:22.817Z,14.80
2018-11-12T10:47:52.711Z,15.10
2018-11-12T10:50:22.007Z,14.20
2018-11-12T10:52:51.125Z,14.60
2018-11-12T10:55:22.320Z,15.90
2018-11-12T10:57:51.582Z,18.00
2018-11-12T11:00:28.168Z,17.50
2018-11-12T11:03:03.920Z,17.30
2018-11-12T11:05:33.228Z,18.20
2018-11-12T11:08:02.177Z,17.80
2018-11-12T11:10:31.656Z,18.90
2018-11-12T11:13:01.977Z,18.00
2018-11-12T11:15:31.814Z,18.60
2018-11-12T11:18:00.692Z,17.80
2018-11-12T11:20:29.813Z,16.40
2018-11-12T11:22:59.155Z,18.50
2018-11-12T11:25:28.229Z,18.40
2018-11-12T11:27:57.186Z,18.60
2018-11-12T11:30:26.105Z,18.20
2018-11-12T11:32:55.026Z,17.40
2018-11-12T11:35:23.881Z,18.20
2018-11-12T11:37:52.828Z,18.80
2018-11-12T11:40:25.976Z,19.10
2018-11-12T11:42:54.733Z,20.10
2018-11-12T11:45:23.816Z,19.80
2018-11-12T11:47:53.572Z,19.30
2018-11-12T11:50:23.917Z,18.10
2018-11-12T11:52:52.778Z,18.60
2018-11-12T11:55:22.948Z,18.20
2018-11-12T11:57:52.217Z,17.40
2018-11-12T12:00:28.729Z,18.50
2018-11-12T12:02:58.700Z,19.40
2018-11-12T12:05:27.997Z,20.20
2018-11-12T12:07:57.401Z,21.40
2018-11-12T12:10:26.293Z,21.30
2018-11-12T12:12:55.286Z,19.60
2018-11-12T12:15:24.721Z,20.30
2018-11-12T12:17:53.779Z,19.60
2018-11-12T12:20:23.911Z,21.20
2018-11-12T12:22:53.276Z,19.80
2018-11-12T12:25:22.242Z,19.50
2018-11-12T12:27:51.360Z,19.10
2018-11-12T12:30:21.701Z,19.50
2018-11-12T12:32:51.451Z,20.60
2018-11-12T12:35:22.506Z,21.40
2018-11-12T12:37:51.444Z,19.70
2018-11-12T12:40:21.461Z,17.70
2018-11-12T12:42:50.447Z,16.20
2018-11-12T12:45:20.788Z,17.30
2018-11-12T12:47:49.866Z,17.00
2018-11-12T12:50:19.281Z,16.60
2018-11-12T12:52:48.215Z,17.20
2018-11-12T12:55:17.481Z,17.70
2018-11-12T12:57:46.752Z,18.50
2018-11-12T13:00:18.673Z,18.20
2018-11-12T13:02:47.723Z,18.40
2018-11-12T13:05:16.556Z,17.00
2018-11-12T13:07:45.607Z,17.30
2018-11-12T13:10:16.106Z,17.00
2018-11-12T13:12:45.029Z,16.20
2018-11-12T13:15:15.483Z,17.20
2018-11-12T13:17:45.082Z,16.70
2018-11-12T13:20:15.211Z,17.00
2018-11-12T13:22:44.590Z,17.10
2018-11-12T13:25:13.781Z,17.20
2018-11-12T13:27:44.829Z,16.80
2018-11-12T13:30:16.482Z,16.10
2018-11-12T13:32:46.191Z,17.30
2018-11-12T13:35:16.521Z,18.60
2018-11-12T13:37:45.508Z,18.40
2018-11-12T13:40:19.356Z,17.60
2018-11-12T13:42:49.978Z,17.20
2018-11-12T13:45:19.005Z,17.60
2018-11-12T13:47:48.077Z,18.30
2018-11-12T13:50:18.397Z,19.30
2018-11-12T13:52:47.588Z,20.00
2018-11-12T13:55:17.713Z,20.50
2018-11-12T13:57:46.605Z,20.80
2018-11-12T14:00:17.657Z,21.00
2018-11-12T14:02:47.354Z,19.70
2018-11-12T14:05:17.506Z,19.40
2018-11-12T14:07:47.773Z,19.90
2018-11-12T14:10:18.944Z,20.10
2018-11-12T14:12:48.217Z,20.30
2018-11-12T14:15:18.975Z,20.50
2018-11-12T14:17:48.468Z,20.50
2018-11-12T14:20:17.847Z,20.40
2018-11-12T14:22:46.941Z,20.20
2018-11-12T14:25:17.801Z,20.00
2018-11-12T14:27:48.176Z,19.90
2018-11-12T14:30:18.309Z,19.90
2018-11-12T14:32:47.163Z,19.70
2018-11-12T14:35:16.069Z,19.60
2018-11-12T14:37:45.954Z,19.60
2018-11-12T14:40:15.923Z,19.50
2018-11-12T14:42:44.811Z,19.50
2018-11-12T14:45:16.178Z,19.40
2018-11-12T14:47:45.508Z,19.30
2018-11-12T14:50:14.410Z,18.30
2018-11-12T14:52:43.355Z,18.20
2018-11-12T14:55:13.515Z,17.70
2018-11-12T14:57:42.553Z,17.50
2018-11-12T15:00:15.226Z,17.60
2018-11-12T15:02:44.180Z,17.60
2018-11-12T15:05:13.421Z,17.30
2018-11-12T15:07:42.340Z,15.60
2018-11-12T15:10:12.242Z,14.70
2018-11-12T15:12:41.427Z,13.90
2018-11-12T15:15:11.420Z,13.20
2018-11-12T15:17:40.473Z,12.80
2018-11-12T15:20:14.353Z,12.50
2018-11-12T15:22:43.691Z,12.30
2018-11-12T15:25:15.752Z,12.10
2018-11-12T15:27:45.216Z,11.90
2018-11-12T15:30:23.192Z,11.90
2018-11-12T15:32:53.677Z,11.80
2018-11-12T15:35:22.605Z,11.70
2018-11-12T15:37:51.953Z,11.50
2018-11-12T15:40:20.909Z,11.40
2018-11-12T15:42:49.784Z,11.10
2018-11-12T15:45:24.088Z,11.00
2018-11-12T15:47:53.000Z,10.70
2018-11-12T15:50:25.570Z,10.60
2018-11-12T15:53:00.426Z,10.40
2018-11-12T15:55:30.577Z,10.20
2018-11-12T15:57:59.520Z,10.10
2018-11-12T16:00:28.420Z,9.90
2018-11-12T16:02:57.277Z,9.80
2018-11-12T16:05:26.318Z,9.80
2018-11-12T16:07:55.172Z,9.70
2018-11-12T16:10:24.120Z,9.70
2018-11-12T16:12:53.119Z,9.60
2018-11-12T16:15:22.605Z,9.50
2018-11-12T16:17:51.582Z,9.40
2018-11-12T16:20:24.135Z,9.10
2018-11-12T16:22:53.429Z,9.00
2018-11-12T16:25:24.447Z,9.00
2018-11-12T16:27:53.353Z,8.90
2018-11-12T16:30:22.204Z,8.70
2018-11-12T16:32:51.159Z,8.60
2018-11-12T16:35:21.903Z,8.60
2018-11-12T16:37:51.752Z,8.50
2018-11-12T16:40:20.675Z,8.40
2018-11-12T16:42:49.990Z,8.40
2018-11-12T16:45:19.015Z,8.20
2018-11-12T16:47:48.281Z,8.10
2018-11-12T16:50:17.671Z,8.10
2018-11-12T16:52:46.618Z,8.00
2018-11-12T16:55:19.513Z,8.00
2018-11-12T16:57:48.466Z,8.00
2018-11-12T17:00:18.637Z,7.90
2018-11-12T17:02:47.996Z,7.90
2018-11-12T17:05:18.563Z,7.80
2018-11-12T17:07:47.523Z,7.70
2018-11-12T17:10:17.710Z,7.60
2018-11-12T17:12:47.549Z,7.60
2018-11-12T17:15:16.710Z,7.70
2018-11-12T17:17:45.929Z,7.70
2018-11-12T17:20:16.234Z,7.70
2018-11-12T17:22:45.135Z,7.70
2018-11-12T17:25:15.048Z,7.70
2018-11-12T17:27:44.574Z,7.60
2018-11-12T17:30:16.241Z,7.60
2018-11-12T17:32:45.727Z,7.50
2018-11-12T17:35:16.150Z,7.40
2018-11-12T17:37:45.287Z,7.30
2018-11-12T17:40:16.317Z,7.10
2018-11-12T17:42:46.269Z,7.10
2018-11-12T17:45:17.425Z,7.10
2018-11-12T17:47:47.552Z,7.10
2018-11-12T17:50:16.505Z,7.20
2018-11-12T17:52:45.387Z,7.20
2018-11-12T17:55:14.313Z,7.10
2018-11-12T17:57:43.188Z,7.10
2018-11-12T18:00:15.385Z,7.10
2018-11-12T18:02:44.289Z,7.00
2018-11-12T18:05:13.305Z,6.90
2018-11-12T18:07:42.917Z,6.80
2018-11-12T18:10:15.145Z,7.00
2018-11-12T18:12:44.140Z,7.10
2018-11-12T18:15:14.470Z,6.90
2018-11-12T18:17:43.424Z,6.80
2018-11-12T18:20:16.013Z,6.70
2018-11-12T18:22:44.993Z,6.60
2018-11-12T18:25:14.412Z,6.50
2018-11-12T18:27:43.429Z,6.40
2018-11-12T18:30:15.803Z,6.50
2018-11-12T18:32:45.208Z,6.50
2018-11-12T18:35:14.232Z,6.40
2018-11-12T18:37:43.153Z,6.30
2018-11-12T18:40:13.838Z,6.20
2018-11-12T18:42:42.758Z,6.10
2018-11-12T18:45:14.272Z,6.00
2018-11-12T18:47:43.502Z,6.00
2018-11-12T18:50:15.020Z,5.80
2018-11-12T18:52:44.260Z,5.80
2018-11-12T18:55:13.140Z,5.80
2018-11-12T18:57:42.714Z,5.70
2018-11-12T19:00:13.253Z,5.70
2018-11-12T19:02:42.173Z,5.60
2018-11-12T19:05:12.958Z,5.60
2018-11-12T19:07:42.696Z,5.50
2018-11-12T19:10:14.342Z,5.50
2018-11-12T19:12:43.943Z,5.50
2018-11-12T19:15:16.035Z,5.50
2018-11-12T19:17:45.991Z,5.60
2018-11-12T19:20:15.769Z,5.50
2018-11-12T19:22:44.676Z,5.40
2018-11-12T19:25:13.987Z,5.40
2018-11-12T19:27:43.568Z,5.30
2018-11-12T19:30:16.867Z,5.30
2018-11-12T19:32:45.810Z,5.20
2018-11-12T19:35:16.204Z,5.20
2018-11-12T19:37:45.644Z,5.10
2018-11-12T19:40:16.230Z,5.00
2018-11-12T19:42:46.324Z,5.00
2018-11-12T19:45:15.690Z,4.90
2018-11-12T19:47:44.969Z,4.90
2018-11-12T19:50:15.027Z,4.90
2018-11-12T19:52:45.331Z,4.90
2018-11-12T19:55:14.483Z,4.80
2018-11-12T19:57:43.720Z,4.80
2018-11-12T20:00:13.901Z,4.80
2018-11-12T20:02:44.026Z,4.70
2018-11-12T20:05:12.945Z,4.60
2018-11-12T20:07:42.334Z,4.60
2018-11-12T20:10:13.989Z,4.50
2018-11-12T20:12:43.048Z,4.50
2018-11-12T20:15:13.121Z,4.50
2018-11-12T20:17:42.845Z,4.50
2018-11-12T20:20:14.604Z,4.40
2018-11-12T20:22:44.074Z,4.40
2018-11-12T20:25:14.200Z,4.30
2018-11-12T20:27:43.357Z,4.30
2018-11-12T20:30:17.122Z,4.30
2018-11-12T20:32:46.657Z,4.30
2018-11-12T20:35:15.719Z,4.20
2018-11-12T20:37:44.625Z,4.10
2018-11-12T20:40:14.762Z,4.10
2018-11-12T20:42:44.811Z,4.00
2018-11-12T20:45:15.061Z,4.20
2018-11-12T20:47:45.105Z,4.10
2018-11-12T20:50:14.929Z,4.00
2018-11-12T20:52:44.205Z,4.00
2018-11-12T20:55:14.124Z,4.00
2018-11-12T20:57:43.409Z,3.90
2018-11-12T21:00:15.578Z,3.80
2018-11-12T21:02:45.862Z,3.80
2018-11-12T21:05:15.129Z,3.70
2018-11-12T21:07:44.009Z,3.70
2018-11-12T21:10:16.991Z,3.70
2018-11-12T21:12:46.496Z,3.60
2018-11-12T21:15:16.534Z,3.50
2018-11-12T21:17:45.554Z,3.70
2018-11-12T21:20:20.771Z,3.70
2018-11-12T21:22:49.848Z,3.80
2018-11-12T21:25:20.463Z,3.70
2018-11-12T21:27:49.433Z,3.70
2018-11-12T21:30:19.586Z,3.70
2018-11-12T21:32:48.609Z,3.60
2018-11-12T21:35:17.452Z,3.50
2018-11-12T21:41:14.787Z,3.40
2018-11-12T21:43:43.727Z,3.30
2018-11-12T21:46:12.529Z,3.30
2018-11-12T21:48:44.737Z,3.30
2018-11-12T21:51:19.814Z,3.30
2018-11-12T21:53:49.334Z,3.10
2018-11-12T21:56:18.355Z,3.30
2018-11-12T21:58:47.543Z,3.20
2018-11-12T22:01:16.283Z,3.20
2018-11-12T22:03:45.102Z,3.10
2018-11-12T22:06:13.929Z,3.20
2018-11-12T22:08:42.881Z,3.10
2018-11-12T22:11:11.608Z,3.10
2018-11-12T22:13:54.191Z,3.10
2018-11-12T22:16:22.994Z,3.10
2018-11-12T22:18:51.812Z,3.10
2018-11-12T22:21:20.624Z,3.10
2018-11-12T22:23:49.435Z,3.20
2018-11-12T22:26:18.235Z,3.20
2018-11-12T22:28:47.052Z,3.20
2018-11-12T22:31:16.026Z,3.30
2018-11-12T22:33:44.999Z,3.30
2018-11-12T22:36:13.807Z,3.50
2018-11-12T22:38:42.805Z,3.50
2018-11-12T22:41:11.647Z,3.60
2018-11-12T22:43:40.463Z,3.60
2018-11-12T22:46:09.265Z,3.70
2018-11-12T22:48:38.102Z,3.70
2018-11-12T22:51:06.935Z,3.70
2018-11-12T22:53:36.001Z,3.80
2018-11-12T22:56:06.400Z,3.80
2018-11-12T22:58:35.395Z,3.90
2018-11-12T23:01:05.158Z,3.90
2018-11-12T23:03:33.964Z,4.10
2018-11-12T23:06:08.087Z,4.20
2018-11-12T23:08:36.918Z,4.20
2018-11-12T23:11:06.073Z,4.20
2018-11-12T23:13:34.916Z,4.20
2018-11-12T23:16:03.735Z,4.20
2018-11-12T23:18:32.775Z,4.30
2018-11-12T23:21:01.596Z,4.30
2018-11-12T23:23:30.416Z,4.30
2018-11-12T23:25:59.256Z,4.40
2018-11-12T23:28:28.093Z,4.40
2018-11-12T23:30:56.903Z,4.50
2018-11-12T23:33:25.727Z,4.50
2018-11-12T23:35:54.533Z,4.50
2018-11-12T23:38:23.347Z,4.60
2018-11-12T23:40:52.187Z,4.60
2018-11-12T23:43:21.016Z,4.60
2018-11-12T23:45:49.852Z,4.60
2018-11-12T23:48:18.820Z,4.60
2018-11-12T23:50:47.671Z,4.60
2018-11-12T23:53:16.478Z,4.70
2018-11-12T23:55:45.282Z,4.60
2018-11-12T23:58:14.117Z,4.60
